createdAt,value
2023-01-22T00:00:21.045Z,63.25
2023-01-22T00:05:24.958Z,63.67
2023-01-22T00:10:30.644Z,63.39
2023-01-22T00:15:35.385Z,63.35
2023-01-22T00:20:41.648Z,63.32
2023-01-22T00:25:46.093Z,63.03
2023-01-22T00:31:03.881Z,62.84
2023-01-22T00:36:16.228Z,62.81
2023-01-22T00:41:23.821Z,62.84
2023-01-22T00:46:27.702Z,62.88
2023-01-22T00:51:33.999Z,63.00
2023-01-22T00:56:37.911Z,62.91
2023-01-22T01:01:41.795Z,62.73
2023-01-22T01:06:46.972Z,62.50
2023-01-22T01:11:51.471Z,62.67
2023-01-22T01:16:58.361Z,62.77
2023-01-22T01:22:02.782Z,62.85
2023-01-22T01:27:08.001Z,62.63
2023-01-22T01:32:14.237Z,62.50
2023-01-22T01:37:48.634Z,62.54
2023-01-22T01:42:53.400Z,62.75
2023-01-22T01:48:19.698Z,62.80
2023-01-22T01:53:23.744Z,62.41
2023-01-22T01:58:33.987Z,62.47
2023-01-22T02:03:40.100Z,62.49
2023-01-22T02:08:50.852Z,62.91
2023-01-22T02:14:12.665Z,62.31
2023-01-22T02:19:20.919Z,62.50
2023-01-22T02:24:24.892Z,62.46
2023-01-22T02:29:29.752Z,62.62
2023-01-22T02:34:33.586Z,62.01
2023-01-22T02:39:39.743Z,62.64
2023-01-22T02:44:45.912Z,62.50
2023-01-22T02:49:51.056Z,62.59
2023-01-22T02:54:54.976Z,62.26
2023-01-22T03:00:00.930Z,62.75
2023-01-22T03:05:05.409Z,62.34
2023-01-22T03:10:14.120Z,62.80
2023-01-22T03:15:37.937Z,62.61
2023-01-22T03:21:01.376Z,62.53
2023-01-22T03:26:06.204Z,63.02
2023-01-22T03:31:11.787Z,63.11
2023-01-22T03:36:18.936Z,63.32
2023-01-22T03:41:30.760Z,63.52
2023-01-22T03:46:42.929Z,63.27
2023-01-22T03:51:47.210Z,63.83
2023-01-22T03:56:55.419Z,64.32
2023-01-22T04:02:05.602Z,63.92
2023-01-22T04:07:18.436Z,63.63
2023-01-22T04:12:23.057Z,64.06
2023-01-22T04:17:28.388Z,63.98
2023-01-22T04:22:52.449Z,64.04
2023-01-22T04:27:57.424Z,64.05
2023-01-22T04:33:03.348Z,64.19
2023-01-22T04:38:18.929Z,64.57
2023-01-22T04:43:24.725Z,64.62
2023-01-22T04:48:29.591Z,64.89
2023-01-22T04:53:34.337Z,64.91
2023-01-22T04:58:42.872Z,64.65
2023-01-22T05:03:47.551Z,65.12
2023-01-22T05:08:51.551Z,65.67
2023-01-22T05:13:55.538Z,65.02
2023-01-22T05:19:01.454Z,65.46
2023-01-22T05:24:10.243Z,66.28
2023-01-22T05:29:16.957Z,66.28
2023-01-22T05:34:24.882Z,66.38
2023-01-22T05:39:29.739Z,66.31
2023-01-22T05:44:37.171Z,66.94
2023-01-22T05:49:43.116Z,66.70
2023-01-22T05:54:50.259Z,66.61
2023-01-22T05:59:54.919Z,66.75
2023-01-22T06:05:01.005Z,66.95
2023-01-22T06:10:06.308Z,67.40
2023-01-22T06:15:20.972Z,66.93
2023-01-22T06:20:33.619Z,67.03
2023-01-22T06:25:39.391Z,67.10
2023-01-22T06:30:58.280Z,67.22
2023-01-22T06:36:04.368Z,67.00
2023-01-22T06:41:10.714Z,67.47
2023-01-22T06:46:16.291Z,67.74
2023-01-22T06:51:40.299Z,67.26
2023-01-22T06:56:49.531Z,67.61
2023-01-22T07:01:54.817Z,67.96
2023-01-22T07:06:59.851Z,68.09
2023-01-22T07:12:03.938Z,68.25
2023-01-22T07:17:13.709Z,68.34
2023-01-22T07:22:17.490Z,68.70
2023-01-22T07:27:24.548Z,68.68
2023-01-22T07:32:31.879Z,68.20
2023-01-22T07:43:53.476Z,68.61
2023-01-22T07:48:57.240Z,68.78
2023-01-22T07:54:03.708Z,68.90
2023-01-22T07:59:07.594Z,69.10
2023-01-22T08:04:14.138Z,69.18
2023-01-22T08:09:26.019Z,69.20
2023-01-22T08:14:30.647Z,68.97
2023-01-22T08:19:35.881Z,69.03
2023-01-22T08:24:41.841Z,69.49
2023-01-22T08:29:46.450Z,69.02
2023-01-22T08:34:56.892Z,69.23
2023-01-22T08:40:01.972Z,69.13
2023-01-22T08:45:07.273Z,69.76
2023-01-22T08:50:11.727Z,69.37
2023-01-22T08:55:17.136Z,69.46
2023-01-22T09:00:22.416Z,69.05
2023-01-22T09:05:29.992Z,69.39
2023-01-22T09:10:33.963Z,69.37
2023-01-22T09:15:38.744Z,69.54
2023-01-22T09:20:42.789Z,69.77
2023-01-22T09:25:48.772Z,69.24
2023-01-22T09:30:52.545Z,69.64
2023-01-22T09:36:08.603Z,69.74
2023-01-22T09:41:16.403Z,69.52
2023-01-22T09:46:44.076Z,69.83
2023-01-22T09:52:05.147Z,69.76
2023-01-22T09:57:30.673Z,69.49
2023-01-22T10:02:46.176Z,69.81
2023-01-22T10:08:03.000Z,69.97
2023-01-22T10:13:29.167Z,70.14
2023-01-22T10:18:41.927Z,69.68
2023-01-22T10:23:45.954Z,69.98
2023-01-22T10:28:55.613Z,70.01
2023-01-22T10:34:02.469Z,69.81
2023-01-22T10:39:15.993Z,69.77
2023-01-22T10:44:26.829Z,70.32
2023-01-22T10:49:32.056Z,69.91
2023-01-22T10:54:45.932Z,69.70
2023-01-22T10:59:57.133Z,70.17
2023-01-22T11:05:21.119Z,70.27
2023-01-22T11:10:57.654Z,70.50
2023-01-22T11:16:19.005Z,70.37
2023-01-22T11:21:33.057Z,70.46
2023-01-22T11:26:55.827Z,70.49
2023-01-22T11:32:24.020Z,70.61
2023-01-22T11:37:36.147Z,70.74
2023-01-22T11:43:00.619Z,70.50
2023-01-22T11:48:32.301Z,70.41
2023-01-22T11:54:01.991Z,71.29
2023-01-22T11:59:51.208Z,71.00
2023-01-22T12:05:38.239Z,71.06
2023-01-22T12:11:10.981Z,70.88
2023-01-22T12:16:32.789Z,71.00
2023-01-22T12:22:01.865Z,71.34
2023-01-22T12:27:16.996Z,71.19
2023-01-22T12:32:25.165Z,71.28
2023-01-22T12:37:42.042Z,71.03
2023-01-22T12:43:02.291Z,71.17
2023-01-22T12:48:25.139Z,71.09
2023-01-22T12:53:30.517Z,71.07
2023-01-22T12:58:43.080Z,71.26
2023-01-22T13:04:01.968Z,71.26
2023-01-22T13:09:25.327Z,71.27
2023-01-22T13:14:34.007Z,71.25
2023-01-22T13:19:45.802Z,71.23
2023-01-22T13:24:55.507Z,71.27
2023-01-22T13:30:22.047Z,71.43
2023-01-22T13:35:25.866Z,71.21
2023-01-22T13:40:42.730Z,70.82
2023-01-22T13:45:53.166Z,70.70
2023-01-22T13:51:12.534Z,71.52
2023-01-22T13:56:21.936Z,71.23
2023-01-22T14:01:32.083Z,71.24
2023-01-22T14:06:50.276Z,71.44
2023-01-22T14:11:54.170Z,71.08
2023-01-22T14:17:00.015Z,71.53
2023-01-22T14:22:03.829Z,71.39
2023-01-22T14:27:09.984Z,71.54
2023-01-22T14:32:13.736Z,71.95
2023-01-22T14:37:19.169Z,72.35
2023-01-22T14:42:27.272Z,72.13
2023-01-22T14:47:31.791Z,72.73
2023-01-22T14:52:43.071Z,72.57
2023-01-22T14:57:51.154Z,72.45
2023-01-22T15:03:00.959Z,72.37
2023-01-22T15:08:05.539Z,72.46
2023-01-22T15:13:11.163Z,72.89
2023-01-22T15:18:15.732Z,73.05
2023-01-22T15:23:19.714Z,72.62
2023-01-22T15:28:24.239Z,72.83
2023-01-22T15:33:29.913Z,73.14
2023-01-22T15:38:34.854Z,73.62
2023-01-22T15:43:40.432Z,73.35
2023-01-22T15:48:44.573Z,73.40
2023-01-22T15:53:56.584Z,73.35
2023-01-22T15:59:01.724Z,73.26
2023-01-22T16:04:05.738Z,73.34
2023-01-22T16:09:11.727Z,73.39
2023-01-22T16:14:15.583Z,73.63
2023-01-22T16:19:20.368Z,73.19
2023-01-22T16:24:24.179Z,74.03
2023-01-22T16:29:30.556Z,73.72
2023-01-22T16:34:34.692Z,73.76
2023-01-22T16:39:38.909Z,74.11
2023-01-22T16:44:42.786Z,73.86
2023-01-22T16:49:46.928Z,74.08
2023-01-22T16:55:51.776Z,74.20
2023-01-22T17:00:55.771Z,74.16
2023-01-22T17:06:00.605Z,73.86
2023-01-22T17:11:06.610Z,74.44
2023-01-22T17:16:11.981Z,74.43
2023-01-22T17:21:19.999Z,74.24
2023-01-22T17:26:23.979Z,74.70
2023-01-22T17:31:28.095Z,74.46
2023-01-22T17:36:33.656Z,74.51
2023-01-22T17:41:37.377Z,74.73
2023-01-22T17:46:43.726Z,74.25
2023-01-22T17:51:48.498Z,74.93
2023-01-22T17:56:54.938Z,74.79
2023-01-22T18:02:01.629Z,74.49
2023-01-22T18:07:06.041Z,74.82
2023-01-22T18:12:11.811Z,74.48
2023-01-22T18:17:15.698Z,74.82
2023-01-22T18:22:21.967Z,74.56
2023-01-22T18:27:26.941Z,74.85
2023-01-22T18:32:32.927Z,74.53
2023-01-22T18:37:38.307Z,74.92
2023-01-22T18:42:44.522Z,75.26
2023-01-22T18:47:56.658Z,74.93
2023-01-22T18:53:04.029Z,74.85
2023-01-22T18:58:20.603Z,74.81
2023-01-22T19:03:27.718Z,74.51
2023-01-22T19:08:31.621Z,74.90
2023-01-22T19:13:36.191Z,74.89
2023-01-22T19:18:44.325Z,75.10
2023-01-22T19:23:55.170Z,75.14
2023-01-22T19:29:05.382Z,75.35
2023-01-22T19:34:13.039Z,75.04
2023-01-22T19:39:16.463Z,75.01
2023-01-22T19:44:21.196Z,75.05
2023-01-22T19:49:25.781Z,75.23
2023-01-22T19:54:29.723Z,75.46
2023-01-22T19:59:35.939Z,75.16
2023-01-22T20:04:41.789Z,75.16
2023-01-22T20:09:45.756Z,75.34
2023-01-22T20:14:54.435Z,75.08
2023-01-22T20:19:58.267Z,75.46
2023-01-22T20:25:03.758Z,75.35
2023-01-22T20:30:09.006Z,75.27
2023-01-22T20:35:19.174Z,75.37
2023-01-22T20:40:26.516Z,75.35
2023-01-22T20:45:33.826Z,75.92
2023-01-22T20:50:43.041Z,75.86
2023-01-22T20:55:49.501Z,75.40
2023-01-22T21:00:56.836Z,75.37
2023-01-22T21:06:13.562Z,75.74
2023-01-22T21:11:21.304Z,75.46
2023-01-22T21:16:27.947Z,75.97
2023-01-22T21:21:38.058Z,75.72
2023-01-22T21:26:44.010Z,75.67
2023-01-22T21:31:53.281Z,75.63
2023-01-22T21:37:02.007Z,75.83
2023-01-22T21:42:25.787Z,75.77
2023-01-22T21:47:31.572Z,75.63
2023-01-22T21:52:35.460Z,75.96
2023-01-22T21:57:40.574Z,76.36
2023-01-22T22:02:46.547Z,76.02
2023-01-22T22:07:50.559Z,75.73
2023-01-22T22:12:54.461Z,75.76
2023-01-22T22:18:00.168Z,75.63
2023-01-22T22:23:05.960Z,75.76
2023-01-22T22:28:11.796Z,75.90
2023-01-22T22:33:15.820Z,75.82
2023-01-22T22:38:21.893Z,75.87
2023-01-22T22:43:25.795Z,76.04
2023-01-22T22:48:29.779Z,75.50
2023-01-22T22:53:34.698Z,76.03
2023-01-22T22:58:40.517Z,76.05
2023-01-22T23:03:46.179Z,75.96
2023-01-22T23:08:55.078Z,75.81
2023-01-22T23:14:03.469Z,76.06
2023-01-22T23:19:20.872Z,75.91
2023-01-22T23:24:28.565Z,75.92
2023-01-22T23:29:33.491Z,76.14
2023-01-22T23:34:42.174Z,75.77
2023-01-22T23:39:46.705Z,76.36
2023-01-22T23:44:50.550Z,76.55
2023-01-22T23:49:54.388Z,75.71
2023-01-22T23:55:00.054Z,75.70
